sensor_id;sensor_type;location;lat;lon;timestamp;P1;durP1;ratioP1;P2;durP2;ratioP2
16862;SDS011;52193;48.216;-1.698;2023-04-01T00:02:26;10.63;;;4.80;;
16862;SDS011;52193;48.216;-1.698;2023-04-01T00:04:53;12.73;;;5.25;;
16862;SDS011;52193;48.216;-1.698;2023-04-01T00:07:20;13.55;;;5.43;;
16862;SDS011;52193;48.216;-1.698;2023-04-01T00:09:47;12.05;;;5.20;;
16862;SDS011;52193;48.216;-1.698;2023-04-01T00:12:14;11.63;;;5.00;;
16862;SDS011;52193;48.216;-1.698;2023-04-01T00:14:42;11.85;;;5.38;;
16862;SDS011;52193;48.216;-1.698;2023-04-01T00:17:09;9.80;;;5.07;;
16862;SDS011;52193;48.216;-1.698;2023-04-01T00:19:36;9.88;;;5.20;;
16862;SDS011;52193;48.216;-1.698;2023-04-01T00:22:03;11.65;;;5.03;;
16862;SDS011;52193;48.216;-1.698;2023-04-01T00:24:31;9.88;;;5.28;;
16862;SDS011;52193;48.216;-1.698;2023-04-01T00:26:58;9.90;;;5.10;;
16862;SDS011;52193;48.216;-1.698;2023-04-01T00:29:25;10.63;;;5.22;;
16862;SDS011;52193;48.216;-1.698;2023-04-01T00:31:55;10.65;;;5.28;;
16862;SDS011;52193;48.216;-1.698;2023-04-01T00:34:23;10.40;;;5.05;;
16862;SDS011;52193;48.216;-1.698;2023-04-01T00:36:50;12.10;;;5.70;;
16862;SDS011;52193;48.216;-1.698;2023-04-01T00:39:19;12.38;;;5.82;;
16862;SDS011;52193;48.216;-1.698;2023-04-01T00:41:46;12.82;;;5.60;;
16862;SDS011;52193;48.216;-1.698;2023-04-01T00:44:18;12.55;;;5.82;;
16862;SDS011;52193;48.216;-1.698;2023-04-01T00:46:46;11.70;;;5.80;;
16862;SDS011;52193;48.216;-1.698;2023-04-01T00:49:14;11.10;;;5.40;;
16862;SDS011;52193;48.216;-1.698;2023-04-01T00:51:45;10.93;;;5.90;;
16862;SDS011;52193;48.216;-1.698;2023-04-01T00:54:15;15.07;;;6.25;;
16862;SDS011;52193;48.216;-1.698;2023-04-01T00:56:45;12.63;;;5.87;;
16862;SDS011;52193;48.216;-1.698;2023-04-01T00:59:16;10.95;;;5.45;;
16862;SDS011;52193;48.216;-1.698;2023-04-01T01:01:47;12.00;;;5.80;;
16862;SDS011;52193;48.216;-1.698;2023-04-01T01:04:25;13.35;;;6.03;;
16862;SDS011;52193;48.216;-1.698;2023-04-01T01:06:56;12.07;;;5.93;;
16862;SDS011;52193;48.216;-1.698;2023-04-01T01:09:36;11.93;;;5.68;;
16862;SDS011;52193;48.216;-1.698;2023-04-01T01:12:11;13.93;;;6.50;;
16862;SDS011;52193;48.216;-1.698;2023-04-01T01:14:45;14.45;;;6.38;;
16862;SDS011;52193;48.216;-1.698;2023-04-01T01:17:24;14.40;;;6.80;;
16862;SDS011;52193;48.216;-1.698;2023-04-01T01:20:17;11.02;;;6.70;;
16862;SDS011;52193;48.216;-1.698;2023-04-01T01:23:23;13.32;;;7.13;;
16862;SDS011;52193;48.216;-1.698;2023-04-01T01:29:07;12.15;;;6.70;;
16862;SDS011;52193;48.216;-1.698;2023-04-01T01:31:45;12.93;;;6.90;;
16862;SDS011;52193;48.216;-1.698;2023-04-01T01:34:17;11.43;;;7.10;;
16862;SDS011;52193;48.216;-1.698;2023-04-01T01:36:52;13.32;;;7.43;;
16862;SDS011;52193;48.216;-1.698;2023-04-01T01:39:25;12.25;;;7.05;;
16862;SDS011;52193;48.216;-1.698;2023-04-01T01:41:56;12.37;;;6.67;;
16862;SDS011;52193;48.216;-1.698;2023-04-01T01:44:26;13.35;;;6.53;;
16862;SDS011;52193;48.216;-1.698;2023-04-01T01:46:56;14.55;;;6.75;;
16862;SDS011;52193;48.216;-1.698;2023-04-01T01:49:24;10.85;;;6.03;;
16862;SDS011;52193;48.216;-1.698;2023-04-01T01:51:53;10.65;;;5.97;;
16862;SDS011;52193;48.216;-1.698;2023-04-01T01:54:19;11.52;;;5.97;;
16862;SDS011;52193;48.216;-1.698;2023-04-01T01:56:47;11.38;;;6.05;;
16862;SDS011;52193;48.216;-1.698;2023-04-01T01:59:18;10.40;;;5.47;;
16862;SDS011;52193;48.216;-1.698;2023-04-01T02:01:49;11.38;;;5.35;;
16862;SDS011;52193;48.216;-1.698;2023-04-01T02:04:18;10.60;;;5.18;;
16862;SDS011;52193;48.216;-1.698;2023-04-01T02:06:46;9.82;;;5.15;;
16862;SDS011;52193;48.216;-1.698;2023-04-01T02:09:20;12.80;;;5.53;;
16862;SDS011;52193;48.216;-1.698;2023-04-01T02:11:47;7.95;;;4.53;;
16862;SDS011;52193;48.216;-1.698;2023-04-01T02:14:17;8.70;;;4.72;;
16862;SDS011;52193;48.216;-1.698;2023-04-01T02:16:47;8.38;;;4.70;;
16862;SDS011;52193;48.216;-1.698;2023-04-01T02:19:18;10.10;;;4.35;;
16862;SDS011;52193;48.216;-1.698;2023-04-01T02:21:49;8.90;;;4.43;;
16862;SDS011;52193;48.216;-1.698;2023-04-01T02:24:16;9.75;;;4.60;;
16862;SDS011;52193;48.216;-1.698;2023-04-01T02:26:48;7.20;;;3.95;;
16862;SDS011;52193;48.216;-1.698;2023-04-01T02:29:19;10.77;;;4.38;;
16862;SDS011;52193;48.216;-1.698;2023-04-01T02:31:47;9.40;;;4.40;;
16862;SDS011;52193;48.216;-1.698;2023-04-01T02:34:16;7.82;;;4.30;;
16862;SDS011;52193;48.216;-1.698;2023-04-01T02:36:43;9.68;;;4.40;;
16862;SDS011;52193;48.216;-1.698;2023-04-01T02:39:10;10.87;;;4.90;;
16862;SDS011;52193;48.216;-1.698;2023-04-01T02:41:40;9.68;;;4.68;;
16862;SDS011;52193;48.216;-1.698;2023-04-01T02:44:09;9.55;;;4.70;;
16862;SDS011;52193;48.216;-1.698;2023-04-01T02:46:37;8.27;;;4.23;;
16862;SDS011;52193;48.216;-1.698;2023-04-01T02:49:04;9.13;;;4.60;;
16862;SDS011;52193;48.216;-1.698;2023-04-01T02:51:32;8.82;;;4.50;;
16862;SDS011;52193;48.216;-1.698;2023-04-01T02:53:59;10.07;;;4.80;;
16862;SDS011;52193;48.216;-1.698;2023-04-01T02:56:26;9.15;;;4.80;;
16862;SDS011;52193;48.216;-1.698;2023-04-01T02:58:53;6.95;;;4.25;;
16862;SDS011;52193;48.216;-1.698;2023-04-01T03:01:22;7.37;;;4.10;;
16862;SDS011;52193;48.216;-1.698;2023-04-01T03:03:49;6.75;;;3.90;;
16862;SDS011;52193;48.216;-1.698;2023-04-01T03:06:16;6.60;;;3.93;;
16862;SDS011;52193;48.216;-1.698;2023-04-01T03:08:44;7.53;;;4.00;;
16862;SDS011;52193;48.216;-1.698;2023-04-01T03:11:11;6.80;;;3.90;;
16862;SDS011;52193;48.216;-1.698;2023-04-01T03:13:38;7.97;;;3.92;;
16862;SDS011;52193;48.216;-1.698;2023-04-01T03:16:06;6.90;;;3.92;;
16862;SDS011;52193;48.216;-1.698;2023-04-01T03:18:34;5.47;;;3.50;;
16862;SDS011;52193;48.216;-1.698;2023-04-01T03:21:12;6.43;;;3.42;;
16862;SDS011;52193;48.216;-1.698;2023-04-01T03:23:42;7.30;;;3.40;;
16862;SDS011;52193;48.216;-1.698;2023-04-01T03:26:10;6.05;;;3.60;;
16862;SDS011;52193;48.216;-1.698;2023-04-01T03:28:37;5.57;;;3.50;;
16862;SDS011;52193;48.216;-1.698;2023-04-01T03:31:04;6.75;;;3.65;;
16862;SDS011;52193;48.216;-1.698;2023-04-01T03:33:31;6.70;;;3.30;;
16862;SDS011;52193;48.216;-1.698;2023-04-01T03:36:00;5.75;;;3.08;;
16862;SDS011;52193;48.216;-1.698;2023-04-01T03:38:28;8.73;;;3.75;;
16862;SDS011;52193;48.216;-1.698;2023-04-01T03:40:55;8.95;;;3.85;;
16862;SDS011;52193;48.216;-1.698;2023-04-01T03:43:22;9.15;;;4.20;;
16862;SDS011;52193;48.216;-1.698;2023-04-01T03:45:49;7.43;;;4.07;;
16862;SDS011;52193;48.216;-1.698;2023-04-01T03:48:17;7.68;;;3.70;;
16862;SDS011;52193;48.216;-1.698;2023-04-01T03:50:44;6.93;;;3.60;;
16862;SDS011;52193;48.216;-1.698;2023-04-01T03:53:13;7.95;;;4.20;;
16862;SDS011;52193;48.216;-1.698;2023-04-01T03:55:40;6.60;;;3.85;;
16862;SDS011;52193;48.216;-1.698;2023-04-01T03:58:07;8.50;;;3.97;;
16862;SDS011;52193;48.216;-1.698;2023-04-01T04:00:34;8.95;;;3.78;;
16862;SDS011;52193;48.216;-1.698;2023-04-01T04:03:01;7.78;;;4.18;;
16862;SDS011;52193;48.216;-1.698;2023-04-01T04:05:28;7.90;;;4.00;;
16862;SDS011;52193;48.216;-1.698;2023-04-01T04:07:56;9.15;;;4.55;;
16862;SDS011;52193;48.216;-1.698;2023-04-01T04:10:24;7.63;;;4.80;;
16862;SDS011;52193;48.216;-1.698;2023-04-01T04:12:51;6.22;;;4.25;;
16862;SDS011;52193;48.216;-1.698;2023-04-01T04:15:18;9.48;;;5.18;;
16862;SDS011;52193;48.216;-1.698;2023-04-01T04:17:45;6.03;;;4.60;;
16862;SDS011;52193;48.216;-1.698;2023-04-01T04:20:13;7.53;;;4.93;;
16862;SDS011;52193;48.216;-1.698;2023-04-01T04:22:40;7.35;;;4.80;;
16862;SDS011;52193;48.216;-1.698;2023-04-01T04:25:07;7.60;;;5.43;;
16862;SDS011;52193;48.216;-1.698;2023-04-01T04:27:36;8.20;;;5.10;;
16862;SDS011;52193;48.216;-1.698;2023-04-01T04:30:03;9.20;;;5.60;;
16862;SDS011;52193;48.216;-1.698;2023-04-01T04:32:32;11.32;;;6.18;;
16862;SDS011;52193;48.216;-1.698;2023-04-01T04:34:59;5.85;;;5.05;;
16862;SDS011;52193;48.216;-1.698;2023-04-01T04:37:26;7.70;;;5.13;;
16862;SDS011;52193;48.216;-1.698;2023-04-01T04:39:53;9.23;;;5.10;;
16862;SDS011;52193;48.216;-1.698;2023-04-01T04:42:20;6.78;;;4.88;;
16862;SDS011;52193;48.216;-1.698;2023-04-01T04:44:48;7.32;;;5.13;;
16862;SDS011;52193;48.216;-1.698;2023-04-01T04:47:15;7.77;;;5.30;;
16862;SDS011;52193;48.216;-1.698;2023-04-01T04:49:42;8.90;;;5.60;;
16862;SDS011;52193;48.216;-1.698;2023-04-01T04:52:08;9.18;;;5.95;;
16862;SDS011;52193;48.216;-1.698;2023-04-01T04:54:35;8.25;;;5.45;;
16862;SDS011;52193;48.216;-1.698;2023-04-01T04:57:02;6.00;;;4.82;;
16862;SDS011;52193;48.216;-1.698;2023-04-01T04:59:30;8.90;;;5.03;;
16862;SDS011;52193;48.216;-1.698;2023-04-01T05:01:58;6.57;;;4.80;;
16862;SDS011;52193;48.216;-1.698;2023-04-01T05:04:25;5.93;;;4.45;;
16862;SDS011;52193;48.216;-1.698;2023-04-01T05:06:52;7.03;;;5.10;;
16862;SDS011;52193;48.216;-1.698;2023-04-01T05:09:19;9.20;;;5.53;;
16862;SDS011;52193;48.216;-1.698;2023-04-01T05:11:46;6.28;;;4.60;;
16862;SDS011;52193;48.216;-1.698;2023-04-01T05:14:13;6.32;;;4.63;;
16862;SDS011;52193;48.216;-1.698;2023-04-01T05:16:40;8.90;;;4.93;;
16862;SDS011;52193;48.216;-1.698;2023-04-01T05:19:09;7.25;;;4.53;;
16862;SDS011;52193;48.216;-1.698;2023-04-01T05:21:36;8.25;;;4.40;;
16862;SDS011;52193;48.216;-1.698;2023-04-01T05:24:03;5.57;;;4.23;;
16862;SDS011;52193;48.216;-1.698;2023-04-01T05:26:33;8.30;;;4.97;;
16862;SDS011;52193;48.216;-1.698;2023-04-01T05:29:00;5.95;;;4.00;;
16862;SDS011;52193;48.216;-1.698;2023-04-01T05:31:27;7.05;;;4.13;;
16862;SDS011;52193;48.216;-1.698;2023-04-01T05:33:54;8.48;;;4.43;;
16862;SDS011;52193;48.216;-1.698;2023-04-01T05:36:22;7.45;;;4.22;;
16862;SDS011;52193;48.216;-1.698;2023-04-01T05:38:49;7.40;;;4.32;;
16862;SDS011;52193;48.216;-1.698;2023-04-01T05:41:16;6.75;;;3.90;;
16862;SDS011;52193;48.216;-1.698;2023-04-01T05:43:43;6.22;;;3.80;;
16862;SDS011;52193;48.216;-1.698;2023-04-01T05:46:10;9.07;;;4.20;;
16862;SDS011;52193;48.216;-1.698;2023-04-01T05:48:37;6.05;;;3.95;;
16862;SDS011;52193;48.216;-1.698;2023-04-01T05:51:04;6.82;;;4.40;;
16862;SDS011;52193;48.216;-1.698;2023-04-01T05:53:32;5.13;;;3.77;;
16862;SDS011;52193;48.216;-1.698;2023-04-01T05:56:02;8.33;;;4.20;;
16862;SDS011;52193;48.216;-1.698;2023-04-01T05:58:29;6.88;;;4.35;;
16862;SDS011;52193;48.216;-1.698;2023-04-01T06:00:59;7.47;;;4.45;;
16862;SDS011;52193;48.216;-1.698;2023-04-01T06:03:28;5.80;;;4.23;;
16862;SDS011;52193;48.216;-1.698;2023-04-01T06:05:55;7.65;;;4.45;;
16862;SDS011;52193;48.216;-1.698;2023-04-01T06:08:22;9.18;;;5.10;;
16862;SDS011;52193;48.216;-1.698;2023-04-01T06:10:55;7.15;;;4.72;;
16862;SDS011;52193;48.216;-1.698;2023-04-01T06:13:35;5.78;;;4.63;;
16862;SDS011;52193;48.216;-1.698;2023-04-01T06:16:15;7.35;;;4.72;;
16862;SDS011;52193;48.216;-1.698;2023-04-01T06:19:02;6.13;;;4.43;;
16862;SDS011;52193;48.216;-1.698;2023-04-01T06:24:45;9.18;;;4.88;;
16862;SDS011;52193;48.216;-1.698;2023-04-01T06:27:50;5.63;;;4.33;;
16862;SDS011;52193;48.216;-1.698;2023-04-01T06:30:45;5.93;;;4.40;;
16862;SDS011;52193;48.216;-1.698;2023-04-01T06:33:25;7.50;;;4.70;;
16862;SDS011;52193;48.216;-1.698;2023-04-01T06:39:14;6.07;;;4.82;;
16862;SDS011;52193;48.216;-1.698;2023-04-01T06:42:17;8.55;;;5.45;;
16862;SDS011;52193;48.216;-1.698;2023-04-01T06:44:58;8.15;;;5.43;;
16862;SDS011;52193;48.216;-1.698;2023-04-01T06:47:41;8.52;;;5.00;;
16862;SDS011;52193;48.216;-1.698;2023-04-01T06:50:22;8.77;;;5.40;;
16862;SDS011;52193;48.216;-1.698;2023-04-01T06:52:55;7.78;;;4.97;;
16862;SDS011;52193;48.216;-1.698;2023-04-01T06:55:26;8.55;;;5.20;;
16862;SDS011;52193;48.216;-1.698;2023-04-01T06:58:00;9.43;;;5.20;;
16862;SDS011;52193;48.216;-1.698;2023-04-01T07:00:33;9.98;;;5.13;;
16862;SDS011;52193;48.216;-1.698;2023-04-01T07:03:05;10.52;;;5.65;;
16862;SDS011;52193;48.216;-1.698;2023-04-01T07:05:41;8.02;;;5.00;;
16862;SDS011;52193;48.216;-1.698;2023-04-01T07:08:09;8.85;;;5.18;;
16862;SDS011;52193;48.216;-1.698;2023-04-01T07:10:42;9.18;;;5.18;;
16862;SDS011;52193;48.216;-1.698;2023-04-01T07:13:14;11.18;;;5.20;;
16862;SDS011;52193;48.216;-1.698;2023-04-01T07:15:48;6.20;;;4.60;;
16862;SDS011;52193;48.216;-1.698;2023-04-01T07:18:22;9.70;;;5.50;;
16862;SDS011;52193;48.216;-1.698;2023-04-01T07:20:56;8.73;;;5.18;;
16862;SDS011;52193;48.216;-1.698;2023-04-01T07:23:24;9.65;;;5.50;;
16862;SDS011;52193;48.216;-1.698;2023-04-01T07:25:55;11.48;;;5.82;;
16862;SDS011;52193;48.216;-1.698;2023-04-01T07:28:26;8.60;;;5.30;;
16862;SDS011;52193;48.216;-1.698;2023-04-01T07:31:03;10.75;;;5.45;;
16862;SDS011;52193;48.216;-1.698;2023-04-01T07:33:41;9.68;;;5.50;;
16862;SDS011;52193;48.216;-1.698;2023-04-01T07:36:13;12.23;;;5.60;;
16862;SDS011;52193;48.216;-1.698;2023-04-01T07:38:47;12.03;;;6.20;;
16862;SDS011;52193;48.216;-1.698;2023-04-01T07:41:25;11.40;;;5.50;;
16862;SDS011;52193;48.216;-1.698;2023-04-01T07:44:01;11.80;;;6.80;;
16862;SDS011;52193;48.216;-1.698;2023-04-01T07:46:50;11.52;;;5.65;;
16862;SDS011;52193;48.216;-1.698;2023-04-01T07:49:27;9.32;;;5.25;;
16862;SDS011;52193;48.216;-1.698;2023-04-01T07:52:01;10.75;;;5.38;;
16862;SDS011;52193;48.216;-1.698;2023-04-01T07:54:36;10.57;;;4.95;;
16862;SDS011;52193;48.216;-1.698;2023-04-01T07:57:14;8.80;;;4.82;;
16862;SDS011;52193;48.216;-1.698;2023-04-01T07:59:48;9.48;;;5.30;;
16862;SDS011;52193;48.216;-1.698;2023-04-01T08:02:27;10.05;;;5.38;;
16862;SDS011;52193;48.216;-1.698;2023-04-01T08:05:04;8.32;;;5.00;;
16862;SDS011;52193;48.216;-1.698;2023-04-01T08:07:42;14.10;;;4.97;;
16862;SDS011;52193;48.216;-1.698;2023-04-01T08:10:14;10.07;;;5.03;;
16862;SDS011;52193;48.216;-1.698;2023-04-01T08:12:49;9.95;;;4.90;;
16862;SDS011;52193;48.216;-1.698;2023-04-01T08:15:26;8.13;;;4.70;;
16862;SDS011;52193;48.216;-1.698;2023-04-01T08:18:04;9.65;;;5.15;;
16862;SDS011;52193;48.216;-1.698;2023-04-01T08:20:38;10.30;;;4.70;;
16862;SDS011;52193;48.216;-1.698;2023-04-01T08:23:12;9.07;;;4.70;;
16862;SDS011;52193;48.216;-1.698;2023-04-01T08:25:44;12.85;;;4.93;;
16862;SDS011;52193;48.216;-1.698;2023-04-01T08:28:19;6.82;;;4.60;;
16862;SDS011;52193;48.216;-1.698;2023-04-01T08:30:50;9.18;;;4.15;;
16862;SDS011;52193;48.216;-1.698;2023-04-01T08:33:24;9.30;;;4.28;;
16862;SDS011;52193;48.216;-1.698;2023-04-01T08:35:54;6.90;;;3.72;;
16862;SDS011;52193;48.216;-1.698;2023-04-01T08:38:25;8.23;;;4.00;;
16862;SDS011;52193;48.216;-1.698;2023-04-01T08:40:57;10.03;;;4.00;;
16862;SDS011;52193;48.216;-1.698;2023-04-01T08:46:26;7.38;;;4.03;;
16862;SDS011;52193;48.216;-1.698;2023-04-01T08:49:07;8.85;;;3.85;;
16862;SDS011;52193;48.216;-1.698;2023-04-01T08:51:52;9.63;;;4.63;;
16862;SDS011;52193;48.216;-1.698;2023-04-01T08:54:34;9.30;;;4.72;;
16862;SDS011;52193;48.216;-1.698;2023-04-01T08:57:20;10.43;;;4.15;;
16862;SDS011;52193;48.216;-1.698;2023-04-01T09:00:01;8.07;;;4.00;;
16862;SDS011;52193;48.216;-1.698;2023-04-01T09:02:50;9.80;;;4.00;;
16862;SDS011;52193;48.216;-1.698;2023-04-01T09:05:52;10.15;;;4.20;;
16862;SDS011;52193;48.216;-1.698;2023-04-01T09:08:49;7.35;;;3.70;;
16862;SDS011;52193;48.216;-1.698;2023-04-01T09:11:33;8.35;;;3.55;;
16862;SDS011;52193;48.216;-1.698;2023-04-01T09:14:23;7.90;;;3.75;;
16862;SDS011;52193;48.216;-1.698;2023-04-01T09:20:17;6.38;;;3.00;;
16862;SDS011;52193;48.216;-1.698;2023-04-01T09:22:57;6.63;;;2.70;;
16862;SDS011;52193;48.216;-1.698;2023-04-01T09:25:46;5.88;;;2.90;;
16862;SDS011;52193;48.216;-1.698;2023-04-01T09:28:26;8.07;;;3.40;;
16862;SDS011;52193;48.216;-1.698;2023-04-01T09:31:15;5.53;;;2.80;;
16862;SDS011;52193;48.216;-1.698;2023-04-01T09:36:54;7.40;;;3.10;;
16862;SDS011;52193;48.216;-1.698;2023-04-01T09:39:36;5.93;;;2.58;;
16862;SDS011;52193;48.216;-1.698;2023-04-01T09:42:13;5.32;;;2.80;;
16862;SDS011;52193;48.216;-1.698;2023-04-01T09:44:57;5.03;;;2.40;;
16862;SDS011;52193;48.216;-1.698;2023-04-01T09:47:29;6.28;;;2.90;;
16862;SDS011;52193;48.216;-1.698;2023-04-01T09:53:19;6.63;;;2.83;;
16862;SDS011;52193;48.216;-1.698;2023-04-01T09:56:12;5.63;;;2.88;;
16862;SDS011;52193;48.216;-1.698;2023-04-01T09:59:03;6.95;;;3.05;;
16862;SDS011;52193;48.216;-1.698;2023-04-01T10:02:03;5.60;;;3.17;;
16862;SDS011;52193;48.216;-1.698;2023-04-01T10:08:27;4.97;;;2.90;;
16862;SDS011;52193;48.216;-1.698;2023-04-01T10:11:45;4.05;;;2.58;;
16862;SDS011;52193;48.216;-1.698;2023-04-01T10:17:49;4.18;;;2.30;;
16862;SDS011;52193;48.216;-1.698;2023-04-01T10:20:57;4.45;;;2.40;;
16862;SDS011;52193;48.216;-1.698;2023-04-01T10:23:38;4.40;;;2.22;;
16862;SDS011;52193;48.216;-1.698;2023-04-01T10:26:32;3.28;;;2.00;;
16862;SDS011;52193;48.216;-1.698;2023-04-01T10:35:29;6.35;;;2.65;;
16862;SDS011;52193;48.216;-1.698;2023-04-01T10:41:32;5.95;;;3.17;;
16862;SDS011;52193;48.216;-1.698;2023-04-01T10:48:00;4.65;;;2.33;;
16862;SDS011;52193;48.216;-1.698;2023-04-01T10:50:51;4.88;;;2.30;;
16862;SDS011;52193;48.216;-1.698;2023-04-01T10:53:49;4.78;;;2.30;;
16862;SDS011;52193;48.216;-1.698;2023-04-01T10:56:49;5.78;;;3.28;;
16862;SDS011;52193;48.216;-1.698;2023-04-01T11:05:32;8.18;;;3.83;;
16862;SDS011;52193;48.216;-1.698;2023-04-01T11:08:48;8.27;;;7.45;;
16862;SDS011;52193;48.216;-1.698;2023-04-01T11:14:38;8.20;;;7.70;;
16862;SDS011;52193;48.216;-1.698;2023-04-01T11:17:43;9.40;;;8.80;;
16862;SDS011;52193;48.216;-1.698;2023-04-01T11:23:54;12.70;;;11.88;;
16862;SDS011;52193;48.216;-1.698;2023-04-01T11:26:38;9.80;;;8.90;;
16862;SDS011;52193;48.216;-1.698;2023-04-01T11:29:25;10.50;;;9.60;;
16862;SDS011;52193;48.216;-1.698;2023-04-01T11:32:12;7.65;;;6.95;;
16862;SDS011;52193;48.216;-1.698;2023-04-01T11:34:55;7.13;;;6.45;;
16862;SDS011;52193;48.216;-1.698;2023-04-01T11:37:36;7.90;;;7.40;;
16862;SDS011;52193;48.216;-1.698;2023-04-01T11:40:11;7.07;;;6.53;;
16862;SDS011;52193;48.216;-1.698;2023-04-01T11:42:49;7.15;;;6.45;;
16862;SDS011;52193;48.216;-1.698;2023-04-01T11:45:24;8.15;;;7.32;;
16862;SDS011;52193;48.216;-1.698;2023-04-01T11:48:15;7.63;;;6.93;;
16862;SDS011;52193;48.216;-1.698;2023-04-01T11:50:59;9.02;;;7.32;;
16862;SDS011;52193;48.216;-1.698;2023-04-01T11:53:41;10.32;;;8.50;;
16862;SDS011;52193;48.216;-1.698;2023-04-01T11:56:17;9.30;;;8.23;;
16862;SDS011;52193;48.216;-1.698;2023-04-01T12:02:07;7.53;;;5.30;;
16862;SDS011;52193;48.216;-1.698;2023-04-01T12:04:46;9.47;;;5.97;;
16862;SDS011;52193;48.216;-1.698;2023-04-01T12:07:32;8.30;;;4.95;;
16862;SDS011;52193;48.216;-1.698;2023-04-01T12:10:19;5.37;;;3.30;;
16862;SDS011;52193;48.216;-1.698;2023-04-01T12:12:49;5.97;;;3.08;;
16862;SDS011;52193;48.216;-1.698;2023-04-01T12:15:26;5.93;;;2.83;;
16862;SDS011;52193;48.216;-1.698;2023-04-01T12:18:00;6.67;;;3.20;;
16862;SDS011;52193;48.216;-1.698;2023-04-01T12:20:40;6.78;;;3.10;;
16862;SDS011;52193;48.216;-1.698;2023-04-01T12:23:19;6.30;;;3.15;;
16862;SDS011;52193;48.216;-1.698;2023-04-01T12:26:18;7.05;;;3.20;;
16862;SDS011;52193;48.216;-1.698;2023-04-01T12:28:58;8.13;;;3.50;;
16862;SDS011;52193;48.216;-1.698;2023-04-01T12:31:51;6.68;;;3.67;;
16862;SDS011;52193;48.216;-1.698;2023-04-01T12:34:32;6.80;;;3.47;;
16862;SDS011;52193;48.216;-1.698;2023-04-01T12:37:09;7.28;;;3.28;;
16862;SDS011;52193;48.216;-1.698;2023-04-01T12:39:47;8.85;;;3.70;;
16862;SDS011;52193;48.216;-1.698;2023-04-01T12:42:31;7.28;;;3.05;;
16862;SDS011;52193;48.216;-1.698;2023-04-01T12:45:19;8.50;;;3.00;;
16862;SDS011;52193;48.216;-1.698;2023-04-01T12:54:00;7.95;;;4.57;;
16862;SDS011;52193;48.216;-1.698;2023-04-01T12:56:47;5.77;;;3.53;;
16862;SDS011;52193;48.216;-1.698;2023-04-01T12:59:27;5.18;;;3.63;;
16862;SDS011;52193;48.216;-1.698;2023-04-01T13:02:12;5.90;;;5.28;;
16862;SDS011;52193;48.216;-1.698;2023-04-01T13:04:48;7.27;;;5.20;;
16862;SDS011;52193;48.216;-1.698;2023-04-01T13:10:26;9.60;;;7.50;;
16862;SDS011;52193;48.216;-1.698;2023-04-01T13:13:15;14.55;;;13.35;;
16862;SDS011;52193;48.216;-1.698;2023-04-01T13:16:01;11.13;;;9.60;;
16862;SDS011;52193;48.216;-1.698;2023-04-01T13:18:37;12.13;;;11.07;;
16862;SDS011;52193;48.216;-1.698;2023-04-01T13:21:11;10.13;;;8.93;;
16862;SDS011;52193;48.216;-1.698;2023-04-01T13:23:46;12.70;;;11.40;;
16862;SDS011;52193;48.216;-1.698;2023-04-01T13:26:22;14.52;;;13.30;;
16862;SDS011;52193;48.216;-1.698;2023-04-01T13:28:56;10.48;;;7.00;;
16862;SDS011;52193;48.216;-1.698;2023-04-01T13:31:48;8.23;;;5.90;;
16862;SDS011;52193;48.216;-1.698;2023-04-01T13:34:30;8.98;;;6.85;;
16862;SDS011;52193;48.216;-1.698;2023-04-01T13:37:13;8.23;;;4.22;;
16862;SDS011;52193;48.216;-1.698;2023-04-01T13:39:52;7.38;;;5.22;;
16862;SDS011;52193;48.216;-1.698;2023-04-01T13:42:29;10.13;;;4.00;;
16862;SDS011;52193;48.216;-1.698;2023-04-01T13:45:08;7.85;;;3.80;;
16862;SDS011;52193;48.216;-1.698;2023-04-01T13:47:49;6.50;;;2.60;;
16862;SDS011;52193;48.216;-1.698;2023-04-01T13:50:34;4.38;;;2.17;;
16862;SDS011;52193;48.216;-1.698;2023-04-01T13:56:16;3.78;;;2.15;;
16862;SDS011;52193;48.216;-1.698;2023-04-01T14:02:04;4.57;;;2.70;;
16862;SDS011;52193;48.216;-1.698;2023-04-01T14:04:48;6.95;;;2.90;;
16862;SDS011;52193;48.216;-1.698;2023-04-01T14:07:32;7.20;;;2.92;;
16862;SDS011;52193;48.216;-1.698;2023-04-01T14:10:19;6.47;;;2.90;;
16862;SDS011;52193;48.216;-1.698;2023-04-01T14:12:57;7.70;;;3.00;;
16862;SDS011;52193;48.216;-1.698;2023-04-01T14:15:31;9.05;;;3.53;;
16862;SDS011;52193;48.216;-1.698;2023-04-01T14:18:10;6.45;;;2.88;;
16862;SDS011;52193;48.216;-1.698;2023-04-01T14:20:51;5.10;;;2.63;;
16862;SDS011;52193;48.216;-1.698;2023-04-01T14:23:40;5.47;;;2.70;;
16862;SDS011;52193;48.216;-1.698;2023-04-01T14:26:22;5.83;;;2.70;;
16862;SDS011;52193;48.216;-1.698;2023-04-01T14:29:09;5.00;;;2.70;;
16862;SDS011;52193;48.216;-1.698;2023-04-01T14:31:48;5.93;;;2.77;;
16862;SDS011;52193;48.216;-1.698;2023-04-01T14:34:32;6.35;;;2.88;;
16862;SDS011;52193;48.216;-1.698;2023-04-01T14:37:29;8.27;;;3.42;;
16862;SDS011;52193;48.216;-1.698;2023-04-01T14:40:42;6.13;;;3.08;;
16862;SDS011;52193;48.216;-1.698;2023-04-01T14:43:38;5.07;;;2.60;;
16862;SDS011;52193;48.216;-1.698;2023-04-01T14:49:14;5.97;;;2.53;;
16862;SDS011;52193;48.216;-1.698;2023-04-01T14:51:46;4.93;;;2.08;;
16862;SDS011;52193;48.216;-1.698;2023-04-01T14:54:15;2.97;;;1.88;;
16862;SDS011;52193;48.216;-1.698;2023-04-01T14:56:48;5.07;;;2.10;;
16862;SDS011;52193;48.216;-1.698;2023-04-01T14:59:25;4.20;;;2.10;;
16862;SDS011;52193;48.216;-1.698;2023-04-01T15:01:55;3.95;;;2.28;;
16862;SDS011;52193;48.216;-1.698;2023-04-01T15:04:44;6.47;;;2.80;;
16862;SDS011;52193;48.216;-1.698;2023-04-01T15:10:18;5.00;;;2.35;;
16862;SDS011;52193;48.216;-1.698;2023-04-01T15:13:02;4.35;;;1.90;;
16862;SDS011;52193;48.216;-1.698;2023-04-01T15:15:39;5.90;;;2.67;;
16862;SDS011;52193;48.216;-1.698;2023-04-01T15:18:26;4.88;;;2.63;;
16862;SDS011;52193;48.216;-1.698;2023-04-01T15:21:12;5.53;;;2.58;;
16862;SDS011;52193;48.216;-1.698;2023-04-01T15:23:58;8.63;;;2.80;;
16862;SDS011;52193;48.216;-1.698;2023-04-01T15:29:38;7.88;;;3.10;;
16862;SDS011;52193;48.216;-1.698;2023-04-01T15:32:16;8.23;;;2.60;;
16862;SDS011;52193;48.216;-1.698;2023-04-01T15:34:47;6.53;;;3.10;;
16862;SDS011;52193;48.216;-1.698;2023-04-01T15:37:21;6.18;;;2.88;;
16862;SDS011;52193;48.216;-1.698;2023-04-01T15:40:00;9.82;;;3.47;;
16862;SDS011;52193;48.216;-1.698;2023-04-01T15:42:39;6.67;;;2.87;;
16862;SDS011;52193;48.216;-1.698;2023-04-01T15:45:26;7.32;;;3.20;;
16862;SDS011;52193;48.216;-1.698;2023-04-01T15:51:21;6.40;;;2.97;;
16862;SDS011;52193;48.216;-1.698;2023-04-01T15:54:07;6.40;;;3.00;;
16862;SDS011;52193;48.216;-1.698;2023-04-01T15:56:52;5.65;;;3.08;;
16862;SDS011;52193;48.216;-1.698;2023-04-01T15:59:35;5.47;;;2.85;;
16862;SDS011;52193;48.216;-1.698;2023-04-01T16:02:14;5.18;;;2.72;;
16862;SDS011;52193;48.216;-1.698;2023-04-01T16:04:49;5.38;;;2.72;;
16862;SDS011;52193;48.216;-1.698;2023-04-01T16:07:25;7.68;;;3.10;;
16862;SDS011;52193;48.216;-1.698;2023-04-01T16:12:54;6.40;;;2.40;;
16862;SDS011;52193;48.216;-1.698;2023-04-01T16:15:33;5.18;;;2.50;;
16862;SDS011;52193;48.216;-1.698;2023-04-01T16:18:15;6.07;;;2.25;;
16862;SDS011;52193;48.216;-1.698;2023-04-01T16:20:53;4.35;;;2.22;;
16862;SDS011;52193;48.216;-1.698;2023-04-01T16:23:24;6.15;;;2.60;;
16862;SDS011;52193;48.216;-1.698;2023-04-01T16:26:01;5.68;;;2.35;;
16862;SDS011;52193;48.216;-1.698;2023-04-01T16:28:34;3.45;;;2.05;;
16862;SDS011;52193;48.216;-1.698;2023-04-01T16:31:09;5.70;;;2.15;;
16862;SDS011;52193;48.216;-1.698;2023-04-01T16:33:41;5.30;;;2.33;;
16862;SDS011;52193;48.216;-1.698;2023-04-01T16:36:20;4.20;;;2.13;;
16862;SDS011;52193;48.216;-1.698;2023-04-01T16:39:06;5.38;;;2.03;;
16862;SDS011;52193;48.216;-1.698;2023-04-01T16:41:42;4.75;;;2.10;;
16862;SDS011;52193;48.216;-1.698;2023-04-01T16:44:17;3.75;;;2.08;;
16862;SDS011;52193;48.216;-1.698;2023-04-01T16:46:49;4.32;;;2.17;;
16862;SDS011;52193;48.216;-1.698;2023-04-01T16:49:32;6.13;;;2.20;;
16862;SDS011;52193;48.216;-1.698;2023-04-01T16:52:12;3.22;;;1.73;;